Aérodrome :
LOGIN :

S'inscrire | Disclaimer

   EN    FR    IT 

 










Légende :    VFR   VFR Marginal   IFR   IFR Intensif   IFR Très Intensif
Visi : 
Plafond : 
>= 8 km
>= 3000ft
5 à 8 km
1000 à 3000 ft
1500m à 5 km
500 à 1000 ft
800 à 1500m
200 à 500 ft
< 800m
< 200 ft
Symboles :   Orages  Brouillard  Fortes neiges  Fortes précipitations  Vent > 20 kt
SIGMETs :   Divers  Orages  Givrage  Turbulence  Onde Orograph.  Cendres Volcan.







- Altitude de l'aérodrome : 194 ft
- Code IATA : ANE
- Voir les cartes d'approche


LFJR - Angers Marcé

METARs EXPIRÉS :
  • 241430Z AUTO 27010KT 230V320 CAVOK 26/11 Q1018 NOSIG
  • 241400Z AUTO 25012KT 230V290 CAVOK 25/12 Q1018 NOSIG
  • 241330Z AUTO 26009KT 210V310 9999 FEW048 BKN068 25/12 Q1019 NOSIG
  • 241300Z AUTO 28009KT 230V330 9999 SCT045 SCT052 BKN064 24/13 Q1019 NOSIG
  • 241230Z AUTO 26007KT 210V300 9999 SCT041 BKN062 24/14 Q1019 NOSIG
  • 241200Z AUTO 25008KT 200V340 9999 SCT041 BKN056 25/14 Q1019 NOSIG

Prévision TAF périmée.
Pas de NOTAMs connus pour ce terrain.



MET'MAP, la Météo Aéronautique d'un coup d'oeil ! - Copyright ORBIFLY Décembre 2007 - Disclaimer

ORBIFLY MET'MAP TEAM :

Programmation & Développement : Alexandra Zaïnal
Conception & Développement : Baudouin d'Aumeries
Co-Programmation & Développement : Marc-Olivier Méhu
Soutien technique & logistique : Manuel Goepfert

Contact : metmap@orbifly.com




SOURCES & CREDITS :

   NOAA